Time;durP1;ratioP1;P1;durP2;ratioP2;P2;SDS_P1;SDS_P2;PMS_P1;PMS_P2;Temp;Humidity;BMP_temperature;BMP_pressure;BME280_temperature;BME280_humidity;BME280_pressure;Samples;Min_cycle;Max_cycle;Signal;HPM_P1;HPM_P2
2023/08/20 00:02:09;;;;;;;8.70;3.90;;;;;;;;;;5059230;28;20037;-73
2023/08/20 00:04:41;;;;;;;9.25;4.05;;;;;;;;;;5059585;28;20522;-73
2023/08/20 00:07:11;;;;;;;7.68;3.88;;;;;;;;;;5060090;28;20415;-74
2023/08/20 00:09:42;;;;;;;6.68;3.33;;;;;;;;;;5060595;28;20051;-72
2023/08/20 00:12:14;;;;;;;7.30;2.90;;;;;;;;;;5060942;28;20060;-75
2023/08/20 00:14:56;;;;;;;5.15;2.90;;;;;;;;;;5061026;28;20053;-73
2023/08/20 00:17:28;;;;;;;6.85;3.20;;;;;;;;;;5058642;28;20045;-75
2023/08/20 00:19:59;;;;;;;10.82;2.60;;;;;;;;;;5061567;28;20044;-75
2023/08/20 00:22:30;;;;;;;6.97;2.20;;;;;;;;;;5058418;28;20051;-74
2023/08/20 00:25:00;;;;;;;3.15;1.95;;;;;;;;;;5061575;28;21132;-74
2023/08/20 00:27:31;;;;;;;4.63;2.63;;;;;;;;;;5061295;28;20040;-73
2023/08/20 00:30:03;;;;;;;4.22;1.85;;;;;;;;;;5043295;28;20048;-76
2023/08/20 00:32:35;;;;;;;2.85;1.70;;;;;;;;;;5060646;28;20053;-76
2023/08/20 00:35:07;;;;;;;5.88;2.20;;;;;;;;;;5060736;28;20048;-74
2023/08/20 00:37:38;;;;;;;4.07;2.00;;;;;;;;;;5059367;28;20052;-74
2023/08/20 00:40:10;;;;;;;4.43;1.63;;;;;;;;;;5057771;28;20036;-75
2023/08/20 00:42:41;;;;;;;4.18;1.75;;;;;;;;;;5057933;28;20415;-74
2023/08/20 00:45:11;;;;;;;5.95;1.83;;;;;;;;;;5059719;28;20068;-77
2023/08/20 00:47:45;;;;;;;4.93;1.83;;;;;;;;;;5060897;28;20095;-74
2023/08/20 00:50:17;;;;;;;5.07;2.35;;;;;;;;;;5056115;28;20515;-75
2023/08/20 00:52:49;;;;;;;8.93;4.60;;;;;;;;;;5064421;28;20518;-75
2023/08/20 00:55:21;;;;;;;10.63;6.10;;;;;;;;;;5062800;28;20044;-74
2023/08/20 00:57:52;;;;;;;12.50;6.72;;;;;;;;;;5063245;28;20075;-75
2023/08/20 01:00:24;;;;;;;11.43;4.95;;;;;;;;;;5064982;28;20420;-74
2023/08/20 01:02:56;;;;;;;10.27;5.20;;;;;;;;;;5064224;28;20431;-76
2023/08/20 01:05:32;;;;;;;10.27;5.35;;;;;;;;;;5062007;28;20036;-76
2023/08/20 01:08:34;;;;;;;15.00;6.72;;;;;;;;;;5061147;28;20476;-75
2023/08/20 01:11:18;;;;;;;20.30;9.63;;;;;;;;;;5062615;28;20531;-74
2023/08/20 01:13:48;;;;;;;13.43;7.05;;;;;;;;;;5061812;28;20071;-73
2023/08/20 01:16:19;;;;;;;12.88;5.30;;;;;;;;;;5044707;28;20507;-75
2023/08/20 01:18:49;;;;;;;9.63;5.22;;;;;;;;;;5064033;28;20048;-75
2023/08/20 01:21:43;;;;;;;8.75;5.00;;;;;;;;;;5059431;28;20056;-75
2023/08/20 01:24:22;;;;;;;10.18;4.97;;;;;;;;;;5063496;28;20059;-74
2023/08/20 01:27:01;;;;;;;10.20;4.63;;;;;;;;;;5062467;28;20044;-75
2023/08/20 01:29:32;;;;;;;12.52;5.43;;;;;;;;;;5062430;28;20055;-74
2023/08/20 01:32:05;;;;;;;7.47;4.22;;;;;;;;;;5063810;28;20107;-74
2023/08/20 01:34:36;;;;;;;7.20;3.42;;;;;;;;;;5063281;28;20048;-75
2023/08/20 01:37:06;;;;;;;7.07;3.92;;;;;;;;;;5046481;28;20044;-73
2023/08/20 01:39:37;;;;;;;11.48;3.67;;;;;;;;;;5061354;28;20047;-73
2023/08/20 01:42:09;;;;;;;9.27;3.83;;;;;;;;;;5063114;28;20040;-73
2023/08/20 01:44:40;;;;;;;9.88;4.40;;;;;;;;;;5040878;28;20044;-75
2023/08/20 01:47:10;;;;;;;8.23;3.70;;;;;;;;;;5063136;28;20049;-75
2023/08/20 01:49:40;;;;;;;6.75;3.72;;;;;;;;;;5061194;28;20043;-74
2023/08/20 01:52:10;;;;;;;8.18;3.70;;;;;;;;;;5062793;28;20047;-74
2023/08/20 01:54:41;;;;;;;7.43;3.75;;;;;;;;;;5061249;28;20039;-75
2023/08/20 01:57:12;;;;;;;11.85;3.40;;;;;;;;;;5062491;28;20036;-75
2023/08/20 01:59:42;;;;;;;6.40;2.83;;;;;;;;;;5063113;28;20521;-74
2023/08/20 02:02:13;;;;;;;7.43;3.03;;;;;;;;;;5060520;28;20044;-76
2023/08/20 02:04:43;;;;;;;6.22;2.55;;;;;;;;;;5063048;28;20056;-74
2023/08/20 02:07:21;;;;;;;8.32;3.08;;;;;;;;;;5060907;28;20407;-73
2023/08/20 02:09:51;;;;;;;5.45;2.50;;;;;;;;;;5044677;28;20055;-74
2023/08/20 02:12:29;;;;;;;8.60;2.63;;;;;;;;;;5060567;28;20056;-73
2023/08/20 02:15:00;;;;;;;9.25;3.08;;;;;;;;;;5058863;28;20057;-73
2023/08/20 02:17:31;;;;;;;4.00;2.10;;;;;;;;;;5064224;28;20063;-73
2023/08/20 02:20:04;;;;;;;3.92;1.92;;;;;;;;;;5062886;28;20053;-74
2023/08/20 02:22:34;;;;;;;7.30;1.52;;;;;;;;;;5061228;28;20079;-75
2023/08/20 02:25:05;;;;;;;2.22;1.40;;;;;;;;;;5061675;28;20052;-74
2023/08/20 02:27:37;;;;;;;4.78;1.90;;;;;;;;;;5062318;28;20060;-73
2023/08/20 02:30:08;;;;;;;4.75;2.03;;;;;;;;;;5061495;28;20075;-73
2023/08/20 02:32:39;;;;;;;5.72;2.22;;;;;;;;;;5059837;28;20087;-76
2023/08/20 02:35:10;;;;;;;4.63;2.35;;;;;;;;;;5063141;28;20675;-74
2023/08/20 02:37:41;;;;;;;6.35;3.22;;;;;;;;;;5063121;28;20048;-73
2023/08/20 02:40:14;;;;;;;7.82;3.95;;;;;;;;;;5062308;28;20052;-74
2023/08/20 02:42:44;;;;;;;5.75;3.25;;;;;;;;;;5062615;28;20048;-76
2023/08/20 02:45:15;;;;;;;6.10;2.78;;;;;;;;;;5062056;28;20049;-73
2023/08/20 02:47:45;;;;;;;5.82;3.03;;;;;;;;;;5063058;28;20060;-73
2023/08/20 02:50:16;;;;;;;4.72;2.63;;;;;;;;;;5062923;28;20048;-75
2023/08/20 02:52:46;;;;;;;4.45;2.30;;;;;;;;;;5061278;28;20658;-73
2023/08/20 02:55:17;;;;;;;3.92;2.38;;;;;;;;;;5063902;28;20048;-74
2023/08/20 02:57:48;;;;;;;3.45;1.85;;;;;;;;;;5061045;28;20055;-73
2023/08/20 03:00:18;;;;;;;2.78;1.60;;;;;;;;;;5062539;28;20443;-74
2023/08/20 03:02:49;;;;;;;3.05;1.70;;;;;;;;;;5060162;28;20052;-75
2023/08/20 03:05:19;;;;;;;6.70;1.70;;;;;;;;;;5060415;28;20522;-74
2023/08/20 03:07:49;;;;;;;2.50;1.42;;;;;;;;;;5062028;28;20439;-75
2023/08/20 03:10:21;;;;;;;2.33;1.42;;;;;;;;;;5061874;28;20048;-75
2023/08/20 03:12:51;;;;;;;3.55;1.60;;;;;;;;;;5061184;28;20053;-74
2023/08/20 03:15:21;;;;;;;3.25;1.52;;;;;;;;;;5060444;28;20522;-74
2023/08/20 03:17:52;;;;;;;5.00;1.58;;;;;;;;;;5061730;28;20048;-74
2023/08/20 03:20:24;;;;;;;2.17;1.15;;;;;;;;;;5061293;28;20044;-73
2023/08/20 03:22:54;;;;;;;3.22;1.75;;;;;;;;;;5059785;28;20741;-73
2023/08/20 03:25:25;;;;;;;2.72;1.63;;;;;;;;;;5062145;28;20063;-74
2023/08/20 03:27:55;;;;;;;4.05;1.45;;;;;;;;;;5060513;28;20071;-75
2023/08/20 03:30:27;;;;;;;1.80;1.30;;;;;;;;;;5062112;28;20063;-76
2023/08/20 03:32:59;;;;;;;3.65;1.60;;;;;;;;;;5061763;28;20067;-75
2023/08/20 03:35:32;;;;;;;2.15;1.23;;;;;;;;;;5060923;28;20545;-74
2023/08/20 03:38:02;;;;;;;2.45;1.23;;;;;;;;;;5062488;28;20079;-74
2023/08/20 03:40:32;;;;;;;2.88;1.30;;;;;;;;;;5059616;28;20052;-73
2023/08/20 03:43:04;;;;;;;5.25;1.58;;;;;;;;;;5060570;28;20051;-75
2023/08/20 03:45:35;;;;;;;2.53;1.33;;;;;;;;;;5060427;28;20040;-74
2023/08/20 03:48:06;;;;;;;3.38;1.20;;;;;;;;;;5060066;28;20509;-73
2023/08/20 03:50:37;;;;;;;2.72;1.23;;;;;;;;;;5061891;28;20048;-74
2023/08/20 03:53:08;;;;;;;3.35;1.63;;;;;;;;;;5059786;28;20052;-75
2023/08/20 03:55:38;;;;;;;3.50;1.55;;;;;;;;;;5062867;28;20122;-73
2023/08/20 03:58:10;;;;;;;4.93;1.67;;;;;;;;;;5059790;28;20049;-73
2023/08/20 04:00:41;;;;;;;3.38;1.58;;;;;;;;;;5062383;28;20511;-74
2023/08/20 04:03:13;;;;;;;2.00;1.20;;;;;;;;;;5062105;28;20052;-74
2023/08/20 04:05:45;;;;;;;4.72;1.92;;;;;;;;;;5062000;28;20044;-74
2023/08/20 04:08:15;;;;;;;4.13;1.52;;;;;;;;;;5060728;28;20053;-74
2023/08/20 04:10:46;;;;;;;4.57;1.77;;;;;;;;;;5059563;28;21102;-74
2023/08/20 04:13:18;;;;;;;4.45;1.80;;;;;;;;;;5062565;28;20048;-75
2023/08/20 04:15:49;;;;;;;6.97;1.75;;;;;;;;;;5062086;28;20056;-74
2023/08/20 04:18:19;;;;;;;6.40;2.00;;;;;;;;;;5060342;28;20511;-74
2023/08/20 04:20:53;;;;;;;5.10;1.77;;;;;;;;;;5061427;28;20407;-75
2023/08/20 04:23:25;;;;;;;3.08;1.70;;;;;;;;;;5060143;28;20890;-75
2023/08/20 04:25:56;;;;;;;3.78;1.63;;;;;;;;;;5061183;28;20045;-74
2023/08/20 04:28:26;;;;;;;3.05;1.70;;;;;;;;;;5063943;28;20434;-75
2023/08/20 04:30:57;;;;;;;4.45;1.75;;;;;;;;;;5064021;28;20061;-73
2023/08/20 04:33:37;;;;;;;2.70;1.25;;;;;;;;;;5063291;28;20079;-75
2023/08/20 04:36:08;;;;;;;3.63;1.38;;;;;;;;;;5064131;28;20040;-73
2023/08/20 04:38:39;;;;;;;2.10;1.33;;;;;;;;;;5063818;28;20597;-73
2023/08/20 04:41:10;;;;;;;6.57;1.42;;;;;;;;;;5065171;28;20748;-74
2023/08/20 04:43:41;;;;;;;3.50;1.30;;;;;;;;;;5063128;28;20423;-73
2023/08/20 04:46:12;;;;;;;4.80;1.60;;;;;;;;;;5063636;28;20055;-73
2023/08/20 04:48:41;;;;;;;3.15;1.20;;;;;;;;;;5065510;28;20397;-75
2023/08/20 04:51:12;;;;;;;3.85;1.60;;;;;;;;;;5063996;28;20049;-74
2023/08/20 04:53:42;;;;;;;;;;;;;;;;;;5065813;28;20422;-73
2023/08/20 04:56:13;;;;;;;4.03;1.60;;;;;;;;;;5065508;28;19924;-75
2023/08/20 04:58:44;;;;;;;3.13;1.40;;;;;;;;;;5063332;28;20055;-75
2023/08/20 05:01:28;;;;;;;4.75;1.65;;;;;;;;;;5063148;28;20430;-75
2023/08/20 05:03:58;;;;;;;2.60;1.42;;;;;;;;;;5062823;28;20049;-73
2023/08/20 05:06:29;;;;;;;3.50;1.65;;;;;;;;;;5063277;28;20052;-73
2023/08/20 05:09:00;;;;;;;4.43;1.80;;;;;;;;;;5062458;28;20064;-74
2023/08/20 05:11:32;;;;;;;2.90;1.70;;;;;;;;;;5063632;28;20056;-73
2023/08/20 05:14:03;;;;;;;2.38;1.30;;;;;;;;;;5062617;28;20131;-74
2023/08/20 05:16:34;;;;;;;4.28;1.40;;;;;;;;;;5062809;28;20048;-74
2023/08/20 05:19:06;;;;;;;2.60;1.35;;;;;;;;;;5065259;28;20048;-74
2023/08/20 05:21:36;;;;;;;1.60;1.23;;;;;;;;;;5062635;28;20522;-73
2023/08/20 05:24:06;;;;;;;2.17;1.38;;;;;;;;;;5065330;28;20052;-74
2023/08/20 05:26:37;;;;;;;3.75;1.52;;;;;;;;;;5063546;28;20056;-74
2023/08/20 05:29:09;;;;;;;3.53;1.15;;;;;;;;;;5063378;28;20048;-73
2023/08/20 05:31:39;;;;;;;2.22;1.38;;;;;;;;;;5062779;28;20069;-74
2023/08/20 05:34:10;;;;;;;2.35;1.38;;;;;;;;;;5062070;28;20070;-74
2023/08/20 05:36:41;;;;;;;2.78;1.08;;;;;;;;;;5062687;28;20060;-73
2023/08/20 05:39:13;;;;;;;3.25;1.50;;;;;;;;;;5062795;28;20051;-74
2023/08/20 05:41:43;;;;;;;1.45;1.13;;;;;;;;;;5064844;28;20503;-73
2023/08/20 05:44:13;;;;;;;5.53;1.48;;;;;;;;;;5061969;28;20052;-74
2023/08/20 05:46:44;;;;;;;2.05;1.27;;;;;;;;;;5062581;28;20049;-73
2023/08/20 05:49:15;;;;;;;3.75;1.15;;;;;;;;;;5064290;28;20060;-74
2023/08/20 05:51:46;;;;;;;1.90;1.10;;;;;;;;;;5062861;28;20514;-73
2023/08/20 05:54:16;;;;;;;6.35;1.10;;;;;;;;;;5046420;28;20068;-72
2023/08/20 05:56:47;;;;;;;1.65;1.17;;;;;;;;;;5061706;28;20523;-73
2023/08/20 05:59:18;;;;;;;2.42;1.30;;;;;;;;;;5045841;28;20059;-73
2023/08/20 06:01:48;;;;;;;2.05;1.10;;;;;;;;;;5062206;28;20063;-73
2023/08/20 06:04:19;;;;;;;1.95;1.10;;;;;;;;;;5063904;28;20044;-73
2023/08/20 06:06:49;;;;;;;2.10;1.20;;;;;;;;;;5063730;28;21141;-73
2023/08/20 06:09:20;;;;;;;8.05;1.55;;;;;;;;;;5061219;28;20048;-74
2023/08/20 06:11:51;;;;;;;7.18;1.30;;;;;;;;;;5063932;28;20866;-74
2023/08/20 06:14:21;;;;;;;3.63;1.60;;;;;;;;;;5063258;28;20052;-73
2023/08/20 06:16:52;;;;;;;;;;;;;;;;;;5063683;28;20044;-74
2023/08/20 06:19:23;;;;;;;2.72;1.30;;;;;;;;;;5064037;28;19924;-74
2023/08/20 06:21:54;;;;;;;1.73;1.08;;;;;;;;;;5064173;28;20052;-73
2023/08/20 06:24:31;;;;;;;3.78;1.27;;;;;;;;;;5062763;28;20040;-74
2023/08/20 06:27:01;;;;;;;1.58;1.20;;;;;;;;;;5061695;28;20044;-74
2023/08/20 06:29:39;;;;;;;2.58;1.25;;;;;;;;;;5062963;28;20407;-74
2023/08/20 06:32:09;;;;;;;4.35;1.55;;;;;;;;;;5062411;28;20531;-73
2023/08/20 06:34:38;;;;;;;;;;;;;;;;;;5063458;28;20063;-72
2023/08/20 06:37:09;;;;;;;2.22;1.20;;;;;;;;;;5063248;28;20300;-72
2023/08/20 06:39:40;;;;;;;1.23;1.02;;;;;;;;;;5061897;28;20072;-73
2023/08/20 06:42:11;;;;;;;3.63;1.10;;;;;;;;;;5062732;28;20052;-73
2023/08/20 06:44:43;;;;;;;2.33;1.20;;;;;;;;;;5060742;28;20519;-73
2023/08/20 06:47:14;;;;;;;2.40;1.40;;;;;;;;;;5063063;28;20048;-73
2023/08/20 06:49:45;;;;;;;3.47;1.38;;;;;;;;;;5061963;28;20048;-74
2023/08/20 06:52:16;;;;;;;1.30;1.20;;;;;;;;;;5061597;28;20519;-74
2023/08/20 06:54:46;;;;;;;2.70;1.30;;;;;;;;;;5062869;28;20408;-72
2023/08/20 06:57:16;;;;;;;4.07;1.70;;;;;;;;;;5062529;28;20041;-74
2023/08/20 06:59:46;;;;;;;;;;;;;;;;;;5063126;28;20495;-73
2023/08/20 07:02:17;;;;;;;8.77;1.80;;;;;;;;;;5061166;28;19921;-74
2023/08/20 07:04:47;;;;;;;7.43;1.92;;;;;;;;;;5062732;28;20045;-74
2023/08/20 07:07:17;;;;;;;4.38;1.48;;;;;;;;;;5062248;28;20526;-72
2023/08/20 07:09:47;;;;;;;1.92;1.40;;;;;;;;;;5061938;28;20059;-72
2023/08/20 07:12:18;;;;;;;1.98;1.40;;;;;;;;;;5061173;28;20802;-72
2023/08/20 07:14:48;;;;;;;2.35;1.35;;;;;;;;;;5062733;28;20055;-74
2023/08/20 07:17:18;;;;;;;4.72;1.50;;;;;;;;;;5062302;28;20119;-74
2023/08/20 07:19:49;;;;;;;3.80;1.40;;;;;;;;;;5063270;28;20557;-74
2023/08/20 07:22:20;;;;;;;4.80;2.00;;;;;;;;;;5061784;28;20052;-72
2023/08/20 07:24:50;;;;;;;5.60;1.70;;;;;;;;;;5061835;28;20040;-73
2023/08/20 07:27:20;;;;;;;3.58;1.60;;;;;;;;;;5062478;28;20063;-73
2023/08/20 07:29:50;;;;;;;3.47;1.80;;;;;;;;;;5062439;28;20526;-74
2023/08/20 07:32:21;;;;;;;3.72;1.67;;;;;;;;;;5062019;28;20049;-73
2023/08/20 07:34:53;;;;;;;2.65;1.45;;;;;;;;;;5061459;28;20052;-74
2023/08/20 07:37:23;;;;;;;4.18;1.80;;;;;;;;;;5062198;28;20044;-75
2023/08/20 07:39:53;;;;;;;6.38;2.03;;;;;;;;;;5062599;28;20542;-75
2023/08/20 07:42:24;;;;;;;3.63;1.80;;;;;;;;;;5062216;28;20048;-73
2023/08/20 07:44:55;;;;;;;6.05;2.40;;;;;;;;;;5061741;28;20047;-74
2023/08/20 07:47:25;;;;;;;4.38;2.25;;;;;;;;;;5061827;28;20419;-75
2023/08/20 07:49:56;;;;;;;2.80;1.90;;;;;;;;;;5060387;28;20056;-72
2023/08/20 07:52:26;;;;;;;3.95;1.80;;;;;;;;;;5061528;28;20430;-73
2023/08/20 07:54:57;;;;;;;3.25;1.65;;;;;;;;;;5061538;28;20048;-76
2023/08/20 07:57:27;;;;;;;3.33;1.63;;;;;;;;;;5061421;28;20523;-73
2023/08/20 07:59:57;;;;;;;3.38;1.73;;;;;;;;;;5061392;28;20051;-73
2023/08/20 08:02:27;;;;;;;3.72;1.83;;;;;;;;;;5061700;28;20040;-73
2023/08/20 08:04:58;;;;;;;4.30;1.92;;;;;;;;;;5061764;28;20044;-74
2023/08/20 08:07:29;;;;;;;6.97;1.67;;;;;;;;;;5060535;28;20059;-73
2023/08/20 08:10:00;;;;;;;4.05;1.45;;;;;;;;;;5061590;28;20044;-72
2023/08/20 08:12:30;;;;;;;3.40;1.98;;;;;;;;;;5060888;28;20067;-74
2023/08/20 08:15:02;;;;;;;2.90;1.50;;;;;;;;;;5061697;28;20044;-72
2023/08/20 08:17:32;;;;;;;3.92;1.90;;;;;;;;;;5062630;28;20075;-73
2023/08/20 08:20:04;;;;;;;3.28;1.58;;;;;;;;;;5062072;28;20431;-74
2023/08/20 08:22:34;;;;;;;2.95;1.70;;;;;;;;;;5061327;28;20385;-73
2023/08/20 08:25:05;;;;;;;8.23;1.80;;;;;;;;;;5061280;28;20052;-74
2023/08/20 08:27:36;;;;;;;4.00;1.83;;;;;;;;;;5061500;28;20487;-74
2023/08/20 08:30:27;;;;;;;2.53;1.95;;;;;;;;;;5061244;28;20052;-73
2023/08/20 08:32:57;;;;;;;2.88;1.98;;;;;;;;;;5061402;28;20059;-74
2023/08/20 08:35:27;;;;;;;7.15;1.60;;;;;;;;;;5061509;28;20053;-73
2023/08/20 08:37:58;;;;;;;4.10;1.50;;;;;;;;;;5061735;28;20415;-77
2023/08/20 08:40:30;;;;;;;7.82;1.70;;;;;;;;;;5061273;28;20123;-73
2023/08/20 08:43:02;;;;;;;3.50;1.50;;;;;;;;;;5061190;28;20048;-74
2023/08/20 08:45:33;;;;;;;2.67;1.38;;;;;;;;;;5059864;28;20060;-72
2023/08/20 08:48:04;;;;;;;1.90;1.20;;;;;;;;;;5061636;28;20041;-74
2023/08/20 08:50:35;;;;;;;3.03;1.33;;;;;;;;;;5059758;28;20419;-75
2023/08/20 08:53:07;;;;;;;2.08;1.33;;;;;;;;;;5061576;28;20621;-73
2023/08/20 08:55:38;;;;;;;3.05;1.40;;;;;;;;;;5061141;28;20044;-74
2023/08/20 08:58:12;;;;;;;1.50;1.10;;;;;;;;;;5060949;28;20052;-75
2023/08/20 09:00:43;;;;;;;2.55;1.30;;;;;;;;;;5060976;28;20052;-73
2023/08/20 09:03:14;;;;;;;3.13;1.42;;;;;;;;;;5061725;28;20045;-74
2023/08/20 09:05:48;;;;;;;5.20;1.45;;;;;;;;;;5061584;28;20463;-73
2023/08/20 09:08:28;;;;;;;1.50;1.23;;;;;;;;;;5061546;28;20053;-74
2023/08/20 09:11:00;;;;;;;4.68;1.65;;;;;;;;;;5058810;28;20082;-73
2023/08/20 09:13:36;;;;;;;2.08;1.48;;;;;;;;;;5064371;28;20043;-75
2023/08/20 09:16:11;;;;;;;3.50;1.67;;;;;;;;;;5064633;28;20048;-74
2023/08/20 09:18:45;;;;;;;2.72;1.50;;;;;;;;;;5063426;28;20052;-74
2023/08/20 09:21:16;;;;;;;5.95;1.65;;;;;;;;;;5064805;28;20053;-75
2023/08/20 09:23:47;;;;;;;2.78;1.70;;;;;;;;;;5064928;28;20059;-74
2023/08/20 09:26:16;;;;;;;;;;;;;;;;;;5064980;28;20045;-75
2023/08/20 09:28:48;;;;;;;1.58;1.17;;;;;;;;;;5064542;28;19932;-73
2023/08/20 09:31:19;;;;;;;2.33;1.65;;;;;;;;;;5063911;28;20439;-74
2023/08/20 09:33:55;;;;;;;7.07;1.50;;;;;;;;;;5064809;28;20048;-75
2023/08/20 09:36:35;;;;;;;2.13;1.30;;;;;;;;;;5064285;28;20049;-73
2023/08/20 09:39:06;;;;;;;2.20;1.42;;;;;;;;;;5064414;28;20049;-73
2023/08/20 09:41:38;;;;;;;3.38;1.40;;;;;;;;;;5064547;28;20044;-74
2023/08/20 09:44:10;;;;;;;2.85;1.73;;;;;;;;;;5063863;28;20048;-73
2023/08/20 09:46:42;;;;;;;2.75;1.50;;;;;;;;;;5064037;28;20533;-73
2023/08/20 09:49:18;;;;;;;2.50;1.75;;;;;;;;;;5062939;28;20059;-74
2023/08/20 09:51:55;;;;;;;2.75;1.48;;;;;;;;;;5063754;28;20525;-73
2023/08/20 09:54:34;;;;;;;4.40;1.52;;;;;;;;;;5063615;28;20047;-75
2023/08/20 09:57:07;;;;;;;3.00;1.65;;;;;;;;;;5063498;28;20067;-74
2023/08/20 09:59:41;;;;;;;1.90;1.40;;;;;;;;;;5064037;28;20504;-74
2023/08/20 10:02:14;;;;;;;3.80;1.70;;;;;;;;;;5063381;28;20682;-73
2023/08/20 10:04:47;;;;;;;2.47;1.60;;;;;;;;;;5061650;28;20049;-74
2023/08/20 10:07:25;;;;;;;2.22;1.30;;;;;;;;;;5062637;28;20518;-72
2023/08/20 10:09:57;;;;;;;3.00;1.77;;;;;;;;;;5063920;28;20055;-74
2023/08/20 10:12:31;;;;;;;4.05;1.70;;;;;;;;;;5064099;28;20431;-74
2023/08/20 10:15:03;;;;;;;2.13;1.45;;;;;;;;;;5063618;28;20052;-74
2023/08/20 10:17:34;;;;;;;1.88;1.30;;;;;;;;;;5063912;28;20048;-72
2023/08/20 10:20:07;;;;;;;5.25;1.38;;;;;;;;;;5063450;28;20617;-73
2023/08/20 10:22:43;;;;;;;2.83;1.38;;;;;;;;;;5062720;28;20056;-74
2023/08/20 10:25:24;;;;;;;4.45;1.80;;;;;;;;;;5062997;28;20158;-75
2023/08/20 10:28:20;;;;;;;9.75;2.17;;;;;;;;;;5062990;28;20052;-72
2023/08/20 10:31:12;;;;;;;3.58;1.73;;;;;;;;;;5063609;28;20049;-74
2023/08/20 10:33:49;;;;;;;3.08;1.70;;;;;;;;;;5063140;28;20063;-73
2023/08/20 10:36:30;;;;;;;2.42;1.50;;;;;;;;;;5062695;28;20052;-74
2023/08/20 10:39:06;;;;;;;3.17;1.73;;;;;;;;;;5063628;28;20059;-74
2023/08/20 10:41:36;;;;;;;4.72;2.30;;;;;;;;;;5063285;28;20095;-73
2023/08/20 10:44:07;;;;;;;4.90;2.25;;;;;;;;;;5063244;28;20045;-73
2023/08/20 10:46:51;;;;;;;2.10;1.58;;;;;;;;;;5062375;28;20052;-73
2023/08/20 10:49:22;;;;;;;3.13;1.73;;;;;;;;;;5063435;28;20045;-74
2023/08/20 10:51:53;;;;;;;4.85;1.80;;;;;;;;;;5063169;28;20051;-72
2023/08/20 10:54:24;;;;;;;2.97;1.52;;;;;;;;;;5062812;28;20052;-72
2023/08/20 10:57:00;;;;;;;4.00;1.75;;;;;;;;;;5060806;28;20427;-74
2023/08/20 10:59:34;;;;;;;1.60;1.27;;;;;;;;;;5063074;28;20515;-74
2023/08/20 11:02:11;;;;;;;3.65;1.55;;;;;;;;;;5062775;28;20063;-74
2023/08/20 11:04:42;;;;;;;2.50;1.48;;;;;;;;;;5061452;28;20048;-74
2023/08/20 11:07:18;;;;;;;2.35;1.48;;;;;;;;;;5061803;28;20052;-74
2023/08/20 11:09:51;;;;;;;2.78;1.50;;;;;;;;;;5062438;28;20059;-74
2023/08/20 11:12:22;;;;;;;2.78;1.35;;;;;;;;;;5062953;28;20055;-74
2023/08/20 11:14:53;;;;;;;3.03;1.25;;;;;;;;;;5060927;28;20602;-72
2023/08/20 11:17:23;;;;;;;4.05;1.50;;;;;;;;;;5062728;28;20052;-74
2023/08/20 11:19:54;;;;;;;2.85;1.38;;;;;;;;;;5061756;28;20102;-74
2023/08/20 11:22:38;;;;;;;2.80;1.38;;;;;;;;;;5062819;28;20079;-73
2023/08/20 11:25:13;;;;;;;1.88;1.10;;;;;;;;;;5060860;28;20048;-74
2023/08/20 11:27:44;;;;;;;2.20;1.40;;;;;;;;;;5062061;28;20048;-73
2023/08/20 11:30:14;;;;;;;2.03;1.33;;;;;;;;;;5062224;28;20075;-73
2023/08/20 11:32:48;;;;;;;5.28;2.10;;;;;;;;;;5062859;28;20052;-74
2023/08/20 11:35:19;;;;;;;6.18;1.50;;;;;;;;;;5061760;28;20384;-73
2023/08/20 11:37:49;;;;;;;2.63;1.58;;;;;;;;;;5060554;28;20056;-75
2023/08/20 11:40:22;;;;;;;2.80;1.42;;;;;;;;;;5062215;28;20518;-75
2023/08/20 11:42:53;;;;;;;4.07;1.90;;;;;;;;;;5061836;28;20059;-74
2023/08/20 11:45:24;;;;;;;4.38;1.73;;;;;;;;;;5062367;28;20052;-74
2023/08/20 11:47:58;;;;;;;5.25;1.60;;;;;;;;;;5060600;28;20495;-74
2023/08/20 11:50:29;;;;;;;4.57;1.73;;;;;;;;;;5061979;28;20052;-74
2023/08/20 11:53:01;;;;;;;2.42;1.40;;;;;;;;;;5061921;28;20534;-74
2023/08/20 11:55:32;;;;;;;8.75;1.70;;;;;;;;;;5062208;28;20044;-74
2023/08/20 11:58:02;;;;;;;2.58;1.20;;;;;;;;;;5061048;28;20586;-74
2023/08/20 12:00:32;;;;;;;2.22;1.83;;;;;;;;;;5061661;28;20657;-74
2023/08/20 12:03:03;;;;;;;2.70;1.45;;;;;;;;;;5062304;28;20061;-77
2023/08/20 12:05:35;;;;;;;6.22;1.48;;;;;;;;;;5061887;28;20059;-74
2023/08/20 12:08:06;;;;;;;4.93;1.23;;;;;;;;;;5062174;28;20044;-75
2023/08/20 12:10:41;;;;;;;3.75;1.70;;;;;;;;;;5062081;28;20499;-74
2023/08/20 12:13:13;;;;;;;4.90;2.17;;;;;;;;;;5061914;28;20055;-74
2023/08/20 12:15:43;;;;;;;1.90;1.23;;;;;;;;;;5061960;28;20423;-74
2023/08/20 12:18:14;;;;;;;5.95;1.20;;;;;;;;;;5060814;28;20102;-73
2023/08/20 12:20:44;;;;;;;3.53;1.40;;;;;;;;;;5061236;28;20052;-74
2023/08/20 12:23:14;;;;;;;1.92;1.30;;;;;;;;;;5061480;28;20404;-74
2023/08/20 12:25:51;;;;;;;2.38;1.40;;;;;;;;;;5061310;28;20426;-74
2023/08/20 12:28:24;;;;;;;2.45;1.30;;;;;;;;;;5061322;28;20044;-75
2023/08/20 12:30:55;;;;;;;1.38;1.17;;;;;;;;;;5061224;28;20055;-75
2023/08/20 12:33:25;;;;;;;1.55;1.00;;;;;;;;;;5059969;28;20048;-74
2023/08/20 12:35:56;;;;;;;5.18;1.33;;;;;;;;;;5061176;28;20504;-75
2023/08/20 12:38:33;;;;;;;1.98;1.13;;;;;;;;;;5061960;28;20523;-76
2023/08/20 12:41:05;;;;;;;4.65;1.20;;;;;;;;;;5061053;28;20049;-75
2023/08/20 12:43:35;;;;;;;5.18;1.42;;;;;;;;;;5062310;28;20063;-75
2023/08/20 12:46:05;;;;;;;2.55;1.30;;;;;;;;;;5060504;28;20052;-77
2023/08/20 12:48:36;;;;;;;1.52;1.30;;;;;;;;;;5065298;28;20048;-74
2023/08/20 12:51:08;;;;;;;1.25;0.98;;;;;;;;;;5064190;28;20055;-76
2023/08/20 12:53:38;;;;;;;3.65;1.08;;;;;;;;;;5063134;28;20067;-75
2023/08/20 12:56:11;;;;;;;3.90;1.45;;;;;;;;;;5064333;28;20059;-74
2023/08/20 12:58:43;;;;;;;2.50;1.33;;;;;;;;;;5065206;28;20372;-75
2023/08/20 13:01:15;;;;;;;4.78;1.50;;;;;;;;;;5065187;28;20049;-73
2023/08/20 13:03:46;;;;;;;2.22;1.33;;;;;;;;;;5062871;28;20049;-73
2023/08/20 13:06:18;;;;;;;1.58;1.20;;;;;;;;;;5064616;28;20045;-76
2023/08/20 13:08:48;;;;;;;1.58;1.10;;;;;;;;;;5065015;28;20518;-73
2023/08/20 13:11:22;;;;;;;3.70;1.23;;;;;;;;;;5065370;28;20044;-73
2023/08/20 13:13:52;;;;;;;2.92;1.27;;;;;;;;;;5064797;28;20039;-74
2023/08/20 13:16:23;;;;;;;3.78;1.40;;;;;;;;;;5064847;28;20045;-73
2023/08/20 13:18:54;;;;;;;3.28;1.40;;;;;;;;;;5065140;28;20045;-74
2023/08/20 13:21:25;;;;;;;4.05;1.52;;;;;;;;;;5064374;28;20491;-74
2023/08/20 13:23:55;;;;;;;1.90;1.35;;;;;;;;;;5065010;28;20071;-74
2023/08/20 13:26:25;;;;;;;3.08;1.40;;;;;;;;;;5064402;28;20522;-74
2023/08/20 13:28:55;;;;;;;2.35;1.00;;;;;;;;;;5063522;28;20392;-74
2023/08/20 13:31:25;;;;;;;5.50;0.90;;;;;;;;;;5064263;28;20044;-74
2023/08/20 13:33:58;;;;;;;2.90;1.10;;;;;;;;;;5064918;28;20044;-73
2023/08/20 13:36:29;;;;;;;2.90;1.40;;;;;;;;;;5064246;28;20048;-74
2023/08/20 13:39:00;;;;;;;4.22;1.00;;;;;;;;;;5064402;28;20521;-74
2023/08/20 13:41:31;;;;;;;4.93;1.10;;;;;;;;;;5064363;28;20423;-75
2023/08/20 13:44:03;;;;;;;4.88;1.30;;;;;;;;;;5064548;28;20111;-73
2023/08/20 13:46:33;;;;;;;2.00;1.17;;;;;;;;;;5064151;28;20442;-75
2023/08/20 13:49:04;;;;;;;4.32;2.45;;;;;;;;;;5064504;28;20056;-72
2023/08/20 13:51:35;;;;;;;3.40;1.20;;;;;;;;;;5063919;28;20048;-73
2023/08/20 13:54:07;;;;;;;2.97;1.33;;;;;;;;;;5063621;28;20052;-75
2023/08/20 13:56:37;;;;;;;1.52;0.95;;;;;;;;;;5064244;28;20044;-74
2023/08/20 13:59:15;;;;;;;2.63;1.05;;;;;;;;;;5064601;28;20052;-74
2023/08/20 14:01:46;;;;;;;3.63;1.17;;;;;;;;;;5064800;28;20056;-73
2023/08/20 14:04:16;;;;;;;2.72;1.00;;;;;;;;;;5065248;28;20420;-76
2023/08/20 14:06:48;;;;;;;1.83;1.30;;;;;;;;;;5064665;28;20037;-73
2023/08/20 14:09:18;;;;;;;2.70;1.00;;;;;;;;;;5064601;28;20041;-74
2023/08/20 14:11:48;;;;;;;7.20;2.60;;;;;;;;;;5064465;28;20044;-75
2023/08/20 14:14:19;;;;;;;1.88;1.10;;;;;;;;;;5063752;28;20049;-75
2023/08/20 14:16:50;;;;;;;1.55;1.20;;;;;;;;;;5063646;28;20045;-73
2023/08/20 14:19:21;;;;;;;1.50;1.27;;;;;;;;;;5062128;28;20641;-77
2023/08/20 14:21:52;;;;;;;3.75;1.30;;;;;;;;;;5062581;28;20064;-74
2023/08/20 14:24:22;;;;;;;1.98;1.17;;;;;;;;;;5064144;28;20879;-78
2023/08/20 14:26:54;;;;;;;1.60;1.30;;;;;;;;;;5064145;28;20041;-74
2023/08/20 14:29:24;;;;;;;3.47;1.33;;;;;;;;;;5064877;28;20041;-72
2023/08/20 14:31:55;;;;;;;1.20;1.10;;;;;;;;;;5063524;28;20053;-77
2023/08/20 14:34:25;;;;;;;1.25;1.15;;;;;;;;;;5061743;28;20048;-75
2023/08/20 14:36:58;;;;;;;3.25;1.30;;;;;;;;;;5062908;28;20056;-74
2023/08/20 14:39:31;;;;;;;3.00;1.45;;;;;;;;;;5064994;28;20056;-75
2023/08/20 14:42:02;;;;;;;1.88;1.33;;;;;;;;;;5064759;28;20041;-72
2023/08/20 14:44:33;;;;;;;3.75;1.75;;;;;;;;;;5064178;28;20072;-75
2023/08/20 14:47:04;;;;;;;2.10;1.40;;;;;;;;;;5061873;28;20435;-76
2023/08/20 14:49:34;;;;;;;3.10;1.65;;;;;;;;;;5064372;28;20059;-74
2023/08/20 14:52:04;;;;;;;4.10;1.20;;;;;;;;;;5063934;28;20053;-76
2023/08/20 14:54:48;;;;;;;2.00;1.33;;;;;;;;;;5063121;28;20059;-75
2023/08/20 14:57:19;;;;;;;3.35;1.50;;;;;;;;;;5062924;28;20044;-76
2023/08/20 14:59:51;;;;;;;3.83;1.55;;;;;;;;;;5063481;28;20052;-75
2023/08/20 15:02:21;;;;;;;4.10;2.40;;;;;;;;;;5061917;28;20053;-76
2023/08/20 15:04:51;;;;;;;3.80;1.52;;;;;;;;;;5063533;28;20052;-76
2023/08/20 15:07:22;;;;;;;4.60;1.88;;;;;;;;;;5063210;28;21145;-73
2023/08/20 15:09:52;;;;;;;4.90;2.10;;;;;;;;;;5061176;28;20059;-75
2023/08/20 15:12:23;;;;;;;5.88;2.28;;;;;;;;;;5062895;28;20411;-74